Time;durP1;ratioP1;P1;durP2;ratioP2;P2;SDS_P1;SDS_P2;PMS_P1;PMS_P2;Temp;Humidity;BMP_temperature;BMP_pressure;BME280_temperature;BME280_humidity;BME280_pressure;Samples;Min_cycle;Max_cycle;Signal;HPM_P1;HPM_P2
2022/06/06 00:00:43;;;;;;;12.43;11.38;;;;;;;16.42;97.02;100743.16;2070220;28;42135;-70
2022/06/06 00:01:48;;;;;;;12.45;11.23;;;;;;;16.41;96.83;100741.41;2070599;28;20039;-69
2022/06/06 00:02:50;;;;;;;13.65;12.35;;;;;;;16.40;96.90;100735.13;2062332;28;40672;-69
2022/06/06 00:03:52;;;;;;;13.23;12.02;;;;;;;16.40;96.96;100732.44;2062529;28;46809;-70
2022/06/06 00:04:54;;;;;;;13.82;12.50;;;;;;;16.40;96.65;100729.72;2063328;28;26689;-70
2022/06/06 00:05:56;;;;;;;13.63;12.05;;;;;;;16.40;97.12;100735.13;2062719;28;44323;-70
2022/06/06 00:06:59;;;;;;;13.88;12.57;;;;;;;16.40;97.17;100728.84;2062609;28;39205;-69
2022/06/06 00:08:01;;;;;;;13.52;12.30;;;;;;;16.39;97.37;100727.97;2063036;28;38408;-70
2022/06/06 00:09:03;;;;;;;12.90;11.60;;;;;;;16.39;97.54;100727.09;2063611;28;35701;-70
2022/06/06 00:10:08;;;;;;;12.77;11.60;;;;;;;16.38;96.98;100723.53;2064426;28;38154;-70
2022/06/06 00:11:14;;;;;;;12.88;11.73;;;;;;;16.39;96.69;100714.47;2064208;28;44153;-70
2022/06/06 00:12:16;;;;;;;14.27;12.88;;;;;;;16.38;97.03;100718.13;2064233;28;39139;-70
2022/06/06 00:13:17;;;;;;;12.80;11.65;;;;;;;16.38;96.86;100720.84;2063973;28;42389;-70
2022/06/06 00:14:19;;;;;;;13.68;12.27;;;;;;;16.37;97.58;100716.38;2064085;28;35901;-70
2022/06/06 00:15:22;;;;;;;13.60;12.30;;;;;;;16.37;97.19;100716.38;2064500;28;37560;-70
2022/06/06 00:16:24;;;;;;;13.35;12.02;;;;;;;16.37;97.81;100708.25;2063827;28;45558;-70
2022/06/06 00:17:28;;;;;;;12.75;11.65;;;;;;;16.37;97.39;100716.38;2071772;28;42441;-69
2022/06/06 00:18:30;;;;;;;12.73;11.57;;;;;;;16.36;97.30;100711.91;2071653;28;20046;-70
2022/06/06 00:19:31;;;;;;;13.38;12.18;;;;;;;16.36;97.38;100717.31;2064091;28;41863;-69
2022/06/06 00:20:33;;;;;;;12.88;11.45;;;;;;;16.36;97.13;100720.00;2064101;28;38936;-70
2022/06/06 00:21:36;;;;;;;13.10;11.90;;;;;;;16.36;97.58;100705.63;2063484;28;47176;-70
2022/06/06 00:22:40;;;;;;;13.23;12.02;;;;;;;16.35;97.16;100714.72;2063965;28;39562;-69
2022/06/06 00:23:42;;;;;;;12.55;11.30;;;;;;;16.34;97.05;100705.72;2065179;28;20203;-70
2022/06/06 00:24:44;;;;;;;13.23;12.00;;;;;;;16.31;97.63;100708.59;2063963;28;40581;-70
2022/06/06 00:25:47;;;;;;;13.35;12.05;;;;;;;16.29;98.04;100699.66;2064240;28;46004;-69
2022/06/06 00:26:49;;;;;;;14.60;13.18;;;;;;;16.29;98.00;100701.50;2063507;28;45505;-69
2022/06/06 00:27:53;;;;;;;14.82;13.50;;;;;;;16.27;98.45;100706.09;2071928;28;27600;-69
2022/06/06 00:28:56;;;;;;;15.30;13.80;;;;;;;16.25;98.59;100698.06;2071283;28;39242;-69
2022/06/06 00:29:58;;;;;;;14.52;13.23;;;;;;;16.22;98.98;100703.63;2064535;28;37872;-69
2022/06/06 00:34:48;;;;;;;14.93;13.43;;;;;;;16.19;99.38;100701.97;2063954;28;43234;-69
2022/06/06 00:35:04;;;;;;;15.18;13.43;;;;;;;16.09;100.00;100697.97;2064282;28;40793;-69
2022/06/06 00:36:06;;;;;;;14.38;13.05;;;;;;;16.07;100.00;100693.59;2071657;28;44131;-69
2022/06/06 00:37:11;;;;;;;15.27;13.93;;;;;;;16.07;100.00;100699.00;2071082;28;39796;-69
2022/06/06 00:38:13;;;;;;;14.45;13.05;;;;;;;16.03;100.00;100692.88;2064953;28;20806;-69
2022/06/06 00:39:18;;;;;;;15.00;13.60;;;;;;;16.02;100.00;100691.13;2063670;28;39766;-69
2022/06/06 00:40:23;;;;;;;14.50;13.13;;;;;;;16.01;100.00;100684.00;2063512;28;44236;-69
2022/06/06 00:41:25;;;;;;;13.93;12.57;;;;;;;15.99;100.00;100684.06;2064203;28;37121;-69
2022/06/06 00:42:38;;;;;;;15.15;13.65;;;;;;;15.98;100.00;100676.91;2064118;28;37719;-70
2022/06/06 00:43:41;;;;;;;16.15;14.07;;;;;;;15.98;100.00;100679.59;2071588;28;43931;-69
2022/06/06 00:44:43;;;;;;;14.88;13.43;;;;;;;15.97;100.00;100672.47;2070577;28;40687;-69
2022/06/06 00:45:52;;;;;;;14.98;13.57;;;;;;;15.97;100.00;100675.16;2063300;28;35719;-69
2022/06/06 00:47:03;;;;;;;14.45;13.15;;;;;;;15.97;100.00;100675.16;2064229;28;40160;-70
2022/06/06 00:48:40;;;;;;;14.68;13.27;;;;;;;15.97;100.00;100675.16;2069764;28;20097;-70
2022/06/06 00:49:53;;;;;;;14.55;13.05;;;;;;;15.96;100.00;100670.69;2064187;28;35995;-69
2022/06/06 00:51:08;;;;;;;13.93;12.63;;;;;;;15.97;100.00;100666.16;2064182;28;42072;-70
2022/06/06 00:52:29;;;;;;;12.55;11.45;;;;;;;15.98;100.00;100668.78;2063964;28;44360;-69
2022/06/06 00:53:48;;;;;;;14.57;13.15;;;;;;;15.98;100.00;100666.09;2071847;28;37608;-70
2022/06/06 00:54:54;;;;;;;14.25;12.95;;;;;;;15.98;100.00;100667.94;2071319;28;42891;-69
2022/06/06 00:56:06;;;;;;;14.10;12.80;;;;;;;15.98;100.00;100668.78;2071777;28;37639;-70
2022/06/06 00:57:17;;;;;;;14.65;13.30;;;;;;;15.98;100.00;100668.78;2071065;28;42880;-69
2022/06/06 00:58:24;;;;;;;13.48;12.18;;;;;;;15.98;100.00;100666.09;2068775;28;40916;-69
2022/06/06 00:59:32;;;;;;;12.10;10.93;;;;;;;15.99;100.00;100664.28;2071795;28;35635;-70
2022/06/06 01:00:36;;;;;;;11.90;10.70;;;;;;;16.00;100.00;100674.13;2071330;28;42003;-69
2022/06/06 01:01:41;;;;;;;12.77;11.63;;;;;;;15.99;100.00;100670.56;2072003;28;20042;-69
2022/06/06 01:02:48;;;;;;;11.10;10.10;;;;;;;16.02;100.00;100678.50;2070507;28;40100;-69
2022/06/06 01:04:01;;;;;;;10.90;9.90;;;;;;;16.01;100.00;100673.19;2071251;28;38596;-70
2022/06/06 01:05:05;;;;;;;8.90;8.10;;;;;;;16.02;100.00;100674.91;2069963;28;20034;-70
2022/06/06 01:06:10;;;;;;;9.05;8.15;;;;;;;16.02;100.00;100670.41;2063753;28;44346;-69
2022/06/06 01:07:12;;;;;;;8.75;7.95;;;;;;;16.01;100.00;100674.06;2063908;28;40484;-70
2022/06/06 01:08:19;;;;;;;7.07;6.55;;;;;;;16.01;100.00;100674.06;2063514;28;41070;-69
2022/06/06 01:09:23;;;;;;;5.10;4.70;;;;;;;15.99;100.00;100675.09;2064500;28;28377;-69
2022/06/06 01:10:25;;;;;;;4.32;4.00;;;;;;;15.99;100.00;100665.16;2071349;28;43231;-70
2022/06/06 01:11:27;;;;;;;3.92;3.05;;;;;;;15.97;100.00;100675.16;2070486;28;41089;-70
2022/06/06 01:12:32;;;;;;;3.42;2.30;;;;;;;15.96;100.00;100684.19;2063707;28;40552;-69
2022/06/06 01:13:34;;;;;;;1.40;1.30;;;;;;;15.96;100.00;100677.94;2063437;28;42663;-70
2022/06/06 01:14:52;;;;;;;1.67;1.40;;;;;;;15.97;100.00;100687.75;2072051;28;21943;-70
2022/06/06 01:16:04;;;;;;;1.60;1.40;;;;;;;15.95;100.00;100686.97;2071844;28;35176;-69
2022/06/06 01:17:35;;;;;;;1.17;1.08;;;;;;;15.94;100.00;100688.81;2071161;28;45772;-69
2022/06/06 01:18:50;;;;;;;;;;;;;;;15.93;100.00;100681.66;2054858;28;45229;-69
2022/06/06 01:20:15;;;;;;;1.45;0.95;;;;;;;15.91;100.00;100685.38;2063510;28;41489;-70
2022/06/06 01:21:35;;;;;;;0.75;0.60;;;;;;;15.89;100.00;100690.84;2072203;28;20173;-70
2022/06/06 01:23:41;;;;;;;1.05;0.63;;;;;;;15.87;100.00;100689.19;2066801;28;41385;-70
2022/06/06 01:25:16;;;;;;;0.50;0.40;;;;;;;15.86;100.00;100693.69;2054610;28;38241;-69
2022/06/06 01:26:54;;;;;;;1.80;0.47;;;;;;;15.85;100.00;100702.75;2055329;28;46849;-69
2022/06/06 01:28:08;;;;;;;1.55;0.40;;;;;;;15.84;100.00;100698.31;2064197;28;35705;-70
2022/06/06 01:29:27;;;;;;;1.40;0.40;;;;;;;15.85;100.00;100689.25;2071794;28;20042;-69
2022/06/06 01:30:54;;;;;;;1.08;0.35;;;;;;;15.82;100.00;100689.41;2071313;28;39338;-70
2022/06/06 01:32:15;;;;;;;0.80;0.40;;;;;;;15.81;100.00;100688.53;2071349;28;38283;-70
2022/06/06 01:33:17;;;;;;;0.80;0.32;;;;;;;15.81;100.00;100696.63;2071148;28;41433;-69
2022/06/06 01:34:31;;;;;;;1.00;0.45;;;;;;;15.81;100.00;100698.47;2069234;28;44360;-70
2022/06/06 01:35:39;;;;;;;2.78;0.50;;;;;;;15.81;100.00;100703.88;2063815;28;36811;-69
2022/06/06 01:36:42;;;;;;;0.60;0.40;;;;;;;15.81;100.00;100703.88;2064144;28;38650;-69
2022/06/06 01:37:46;;;;;;;0.50;0.32;;;;;;;15.80;100.00;100707.50;2063497;28;46363;-69
2022/06/06 01:38:49;;;;;;;1.75;0.50;;;;;;;15.79;100.00;100703.03;2063452;28;43105;-69
2022/06/06 01:39:56;;;;;;;0.50;0.40;;;;;;;15.79;100.00;100705.75;2071606;28;34331;-69
2022/06/06 01:41:09;;;;;;;1.27;0.60;;;;;;;15.77;100.00;100713.03;2070570;28;37804;-69
2022/06/06 01:42:24;;;;;;;0.57;0.40;;;;;;;15.78;100.00;100701.31;2070929;28;44652;-69
2022/06/06 01:43:35;;;;;;;0.80;0.50;;;;;;;15.76;100.00;100706.78;2069470;28;40448;-69
2022/06/06 01:45:00;;;;;;;1.20;0.60;;;;;;;15.76;100.00;100719.41;2071088;28;45658;-69
2022/06/06 01:46:11;;;;;;;3.47;0.70;;;;;;;15.74;100.00;100719.47;2071234;28;40196;-69
2022/06/06 01:47:24;;;;;;;2.38;0.50;;;;;;;15.75;100.00;100725.75;2069159;28;45756;-69
2022/06/06 01:48:32;;;;;;;1.40;0.60;;;;;;;15.73;100.00;100725.78;2071414;28;37998;-69
2022/06/06 01:49:34;;;;;;;0.80;0.73;;;;;;;15.73;100.00;100727.63;2071751;28;40107;-69
2022/06/06 01:50:41;;;;;;;1.95;1.00;;;;;;;15.72;100.00;100737.53;2071329;28;40638;-69
2022/06/06 01:51:56;;;;;;;1.58;0.75;;;;;;;15.72;100.00;100739.34;2071181;28;39779;-69
2022/06/06 01:53:06;;;;;;;0.85;0.75;;;;;;;15.72;99.48;100733.94;2069828;28;20116;-69
2022/06/06 01:54:09;;;;;;;2.67;1.00;;;;;;;15.71;99.87;100740.31;2063584;28;45047;-69
2022/06/06 01:55:11;;;;;;;1.45;0.90;;;;;;;15.71;99.75;100748.41;2063969;28;32715;-69
2022/06/06 01:56:21;;;;;;;1.25;0.70;;;;;;;15.70;99.75;100746.66;2064050;28;20927;-70
2022/06/06 01:57:25;;;;;;;2.15;0.70;;;;;;;15.68;99.21;100741.31;2063342;28;43136;-69
2022/06/06 01:58:31;;;;;;;1.10;0.70;;;;;;;15.68;98.52;100753.94;2064071;28;23989;-70
2022/06/06 01:59:35;;;;;;;2.10;0.75;;;;;;;15.66;98.50;100746.78;2063320;28;45164;-69
2022/06/06 02:00:39;;;;;;;0.90;0.70;;;;;;;15.65;98.07;100758.53;2063510;28;43768;-69
2022/06/06 02:01:40;;;;;;;4.55;0.73;;;;;;;15.64;97.71;100758.59;2063182;28;44581;-69
2022/06/06 02:02:43;;;;;;;0.73;0.65;;;;;;;15.61;97.98;100756.03;2063760;28;41219;-69
2022/06/06 02:03:46;;;;;;;1.00;0.82;;;;;;;15.59;98.15;100764.22;2063702;28;28441;-70
2022/06/06 02:04:48;;;;;;;0.73;0.70;;;;;;;15.59;97.57;100774.13;2063283;28;40465;-69
2022/06/06 02:05:50;;;;;;;1.05;0.70;;;;;;;15.57;98.08;100771.50;2063519;28;35401;-69
2022/06/06 02:06:52;;;;;;;1.00;0.90;;;;;;;15.57;97.35;100774.22;2064438;28;26274;-70
2022/06/06 02:07:54;;;;;;;1.10;0.85;;;;;;;15.57;97.84;100779.59;2070820;28;43013;-70
2022/06/06 02:08:56;;;;;;;1.65;0.85;;;;;;;15.56;97.84;100776.97;2071130;28;38075;-69
2022/06/06 02:09:57;;;;;;;1.80;1.00;;;;;;;15.54;97.97;100787.88;2062741;28;40803;-70
2022/06/06 02:11:02;;;;;;;1.00;0.90;;;;;;;15.56;97.75;100779.66;2062681;28;44726;-69
2022/06/06 02:12:04;;;;;;;1.05;0.95;;;;;;;15.51;97.66;100781.72;2063094;28;37938;-69
2022/06/06 02:13:06;;;;;;;1.23;1.10;;;;;;;15.52;98.00;100781.63;2063481;28;41514;-70
2022/06/06 02:14:11;;;;;;;1.25;1.15;;;;;;;15.52;97.36;100788.88;2063319;28;42358;-69
2022/06/06 02:15:18;;;;;;;1.25;1.08;;;;;;;15.52;97.68;100792.44;2063229;28;40142;-69
2022/06/06 02:16:20;;;;;;;1.02;0.90;;;;;;;15.52;97.96;100794.25;2063334;28;38802;-69
2022/06/06 02:17:24;;;;;;;2.03;1.23;;;;;;;15.50;97.52;100786.22;2063696;28;40446;-69
2022/06/06 02:18:26;;;;;;;1.13;1.02;;;;;;;15.51;98.05;100792.53;2063311;28;35425;-68
2022/06/06 02:19:28;;;;;;;1.30;1.20;;;;;;;15.51;97.70;100792.53;2063246;28;41504;-69
2022/06/06 02:20:35;;;;;;;1.60;1.50;;;;;;;15.50;97.55;100791.63;2064283;28;20855;-69
2022/06/06 02:21:37;;;;;;;1.60;1.50;;;;;;;15.49;97.82;100789.00;2063366;28;45511;-70
2022/06/06 02:22:39;;;;;;;1.80;1.70;;;;;;;15.48;98.09;100795.34;2063183;28;45125;-69
2022/06/06 02:23:42;;;;;;;1.40;1.30;;;;;;;15.48;97.93;100798.91;2063763;28;38271;-69
2022/06/06 02:24:45;;;;;;;1.88;1.63;;;;;;;15.48;98.24;100798.91;2063174;28;41603;-69
2022/06/06 02:25:47;;;;;;;1.95;1.85;;;;;;;15.45;97.71;100794.56;2063377;28;41339;-69
2022/06/06 02:26:50;;;;;;;1.65;1.55;;;;;;;15.46;97.81;100800.81;2063249;28;36393;-69
2022/06/06 02:27:52;;;;;;;1.67;1.58;;;;;;;15.46;98.05;100792.72;2063337;28;37110;-69
2022/06/06 02:28:54;;;;;;;1.67;1.58;;;;;;;15.45;97.42;100802.66;2063122;28;41411;-70
2022/06/06 02:29:56;;;;;;;1.90;1.80;;;;;;;15.44;97.69;100808.09;2071194;28;37335;-69
2022/06/06 02:30:58;;;;;;;3.58;1.75;;;;;;;15.43;97.53;100796.44;2070656;28;41749;-69
2022/06/06 02:31:59;;;;;;;2.40;2.00;;;;;;;15.44;97.54;100811.69;2061930;28;41134;-69
2022/06/06 02:33:01;;;;;;;2.00;1.90;;;;;;;15.44;97.32;100800.03;2063313;28;43835;-69
2022/06/06 02:34:08;;;;;;;1.92;1.83;;;;;;;15.43;97.24;100807.25;2063812;28;20039;-69
2022/06/06 02:35:13;;;;;;;2.10;2.00;;;;;;;15.44;97.28;100802.72;2062873;28;36528;-69
2022/06/06 02:36:15;;;;;;;3.90;2.10;;;;;;;15.43;97.33;100806.34;2062890;28;38720;-69
2022/06/06 02:37:17;;;;;;;3.05;2.30;;;;;;;15.41;97.82;100800.16;2063458;28;35074;-69
2022/06/06 02:38:20;;;;;;;2.42;2.20;;;;;;;15.42;97.68;100810.00;2063030;28;44007;-69
2022/06/06 02:39:22;;;;;;;3.67;2.40;;;;;;;15.41;97.63;100808.25;2063397;28;39994;-69
2022/06/06 02:40:26;;;;;;;2.95;2.65;;;;;;;15.39;97.46;100812.84;2063543;28;38134;-69
2022/06/06 02:41:29;;;;;;;2.67;2.20;;;;;;;15.38;97.50;100817.38;2063233;28;40445;-69
2022/06/06 02:42:33;;;;;;;3.00;2.80;;;;;;;15.36;98.07;100813.88;2062446;28;43035;-69
2022/06/06 02:43:41;;;;;;;2.80;2.60;;;;;;;15.36;98.20;100816.56;2062211;28;38459;-69
2022/06/06 02:44:46;;;;;;;3.00;2.75;;;;;;;15.34;98.15;100801.38;2063696;28;20038;-69
2022/06/06 02:45:50;;;;;;;3.40;3.03;;;;;;;15.33;98.60;100810.44;2070603;28;37644;-69
2022/06/06 02:46:52;;;;;;;3.33;3.03;;;;;;;15.34;98.69;100822.94;2070755;28;25161;-69
2022/06/06 02:47:57;;;;;;;3.30;3.10;;;;;;;15.33;98.78;100816.69;2063821;28;20039;-70
2022/06/06 02:48:59;;;;;;;3.13;2.92;;;;;;;15.31;98.41;100823.97;2063301;28;40072;-70
2022/06/06 02:50:00;;;;;;;3.92;3.63;;;;;;;15.30;98.79;100811.41;2063444;28;29706;-69
2022/06/06 02:51:03;;;;;;;3.97;3.60;;;;;;;15.30;98.84;100810.56;2071061;28;36799;-69
2022/06/06 02:52:06;;;;;;;3.97;3.65;;;;;;;15.28;98.90;100830.38;2070655;28;39174;-69
2022/06/06 02:53:10;;;;;;;3.53;3.22;;;;;;;15.27;99.07;100828.63;2071049;28;29436;-70
2022/06/06 02:54:14;;;;;;;4.05;3.70;;;;;;;15.27;99.24;100831.34;2070522;28;38097;-69
2022/06/06 02:55:16;;;;;;;3.50;3.20;;;;;;;15.25;99.26;100819.75;2063131;28;39396;-69
2022/06/06 02:56:18;;;;;;;3.70;3.40;;;;;;;15.25;99.44;100822.44;2063044;28;44967;-69
2022/06/06 02:57:20;;;;;;;3.92;3.53;;;;;;;15.26;99.28;100826.88;2062696;28;43588;-69
2022/06/06 02:58:24;;;;;;;3.67;3.38;;;;;;;15.26;99.02;100832.25;2064051;28;20149;-70
2022/06/06 02:59:28;;;;;;;3.88;3.58;;;;;;;15.26;99.27;100829.56;2062920;28;43755;-69
2022/06/06 03:00:33;;;;;;;4.03;3.72;;;;;;;15.26;99.34;100820.59;2070345;28;41301;-70
2022/06/06 03:01:35;;;;;;;4.60;4.20;;;;;;;15.26;99.28;100826.00;2069290;28;46438;-70
2022/06/06 03:02:37;;;;;;;4.30;4.00;;;;;;;15.27;98.92;100834.03;2063344;28;36440;-69
2022/06/06 03:03:40;;;;;;;8.25;4.85;;;;;;;15.26;99.03;100824.16;2062903;28;45528;-69
2022/06/06 03:04:44;;;;;;;5.38;4.97;;;;;;;15.27;98.44;100836.72;2064198;28;20039;-70
2022/06/06 03:06:19;;;;;;;4.75;4.30;;;;;;;15.26;98.58;100840.34;2063613;28;40142;-69
2022/06/06 03:07:38;;;;;;;5.18;4.68;;;;;;;15.25;98.77;100833.22;2070944;28;39336;-69
2022/06/06 03:09:15;;;;;;;5.72;5.22;;;;;;;15.25;98.36;100835.03;2071175;28;37264;-69
2022/06/06 03:10:56;;;;;;;7.45;5.57;;;;;;;15.26;98.02;100840.34;2057891;28;39086;-69
2022/06/06 03:12:37;;;;;;;6.35;5.75;;;;;;;15.25;98.76;100841.31;2070561;28;38874;-69
2022/06/06 03:14:27;;;;;;;7.63;6.38;;;;;;;15.23;98.79;100837.78;2063777;28;22068;-69
2022/06/06 03:21:44;;;;;;;10.05;9.05;;;;;;;15.13;99.96;100863.41;2070209;28;37985;-69
2022/06/06 03:23:20;;;;;;;11.35;9.93;;;;;;;15.13;99.73;100855.34;2062717;28;37392;-69
2022/06/06 03:24:46;;;;;;;13.23;10.05;;;;;;;15.10;99.94;100855.47;2063058;28;45623;-69
2022/06/06 03:26:26;;;;;;;13.95;10.77;;;;;;;15.10;99.86;100859.97;2071298;28;20057;-69
2022/06/06 03:27:55;;;;;;;12.73;11.32;;;;;;;15.09;99.59;100851.00;2070972;28;20763;-69
2022/06/06 03:29:31;;;;;;;13.43;11.18;;;;;;;15.07;99.59;100859.19;2071490;28;20043;-69
2022/06/06 03:30:47;;;;;;;13.60;11.68;;;;;;;15.07;99.25;100860.97;2071087;28;26613;-69
2022/06/06 03:32:13;;;;;;;12.93;11.50;;;;;;;15.07;98.73;100863.66;2065153;28;44351;-69
2022/06/06 03:33:48;;;;;;;14.23;11.57;;;;;;;15.07;99.22;100869.06;2063541;28;20181;-69
2022/06/06 03:35:07;;;;;;;14.50;12.38;;;;;;;15.04;98.83;100864.69;2062669;28;40025;-69
2022/06/06 03:36:48;;;;;;;15.93;12.25;;;;;;;15.04;98.25;100869.22;2070169;28;44914;-69
2022/06/06 03:38:13;;;;;;;17.23;12.85;;;;;;;15.03;98.86;100867.44;2063445;28;40145;-68
2022/06/06 03:40:07;;;;;;;17.42;13.73;;;;;;;15.01;97.95;100882.81;2062611;28;39116;-69
2022/06/06 03:41:37;;;;;;;23.45;14.30;;;;;;;15.00;98.13;100879.25;2062471;28;20054;-69
2022/06/06 03:43:00;;;;;;;19.70;15.48;;;;;;;14.99;98.07;100884.72;2062541;28;45066;-70
2022/06/06 03:44:31;;;;;;;18.42;14.45;;;;;;;14.99;97.93;100885.56;2072545;28;23784;-69
2022/06/06 03:45:42;;;;;;;22.20;16.55;;;;;;;14.97;97.98;100889.28;2067173;28;42395;-69
2022/06/06 03:47:20;;;;;;;25.08;16.65;;;;;;;14.96;98.56;100892.91;2064322;28;39488;-69
2022/06/06 03:49:14;;;;;;;27.35;17.88;;;;;;;14.90;98.32;100880.56;2064486;28;42889;-69
2022/06/06 03:50:43;;;;;;;24.25;16.70;;;;;;;14.89;98.07;100892.28;2071808;28;36292;-69
2022/06/06 03:52:24;;;;;;;24.27;16.95;;;;;;;14.89;98.05;100892.28;2071393;28;42306;-69
2022/06/06 03:53:49;;;;;;;;;;;;;;;14.89;98.04;100885.09;2064881;28;38897;-69
2022/06/06 03:55:07;;;;;;;21.08;15.82;;;;;;;14.89;97.39;100895.88;2063876;28;41916;-69
2022/06/06 03:56:43;;;;;;;23.00;16.95;;;;;;;14.90;97.36;100891.34;2071759;28;39381;-69
2022/06/06 03:57:47;;;;;;;26.70;18.45;;;;;;;14.91;97.45;100887.69;2065632;28;36933;-69
2022/06/06 03:58:51;;;;;;;25.10;17.95;;;;;;;14.91;97.44;100885.00;2071397;28;40161;-70
2022/06/06 04:00:01;;;;;;;23.88;16.90;;;;;;;14.92;97.52;100894.88;2071018;28;39811;-70
2022/06/06 04:01:14;;;;;;;25.13;17.85;;;;;;;14.92;97.67;100902.94;2072589;28;20131;-69
2022/06/06 04:02:22;;;;;;;27.27;18.55;;;;;;;14.92;97.59;100891.31;2069262;28;46630;-69
2022/06/06 04:03:26;;;;;;;25.08;18.42;;;;;;;14.93;97.73;100893.03;2071833;28;37726;-70
2022/06/06 04:04:30;;;;;;;28.00;18.75;;;;;;;14.92;97.73;100897.56;2070432;28;44291;-70
2022/06/06 04:05:36;;;;;;;27.25;19.83;;;;;;;14.93;97.83;100895.72;2064469;28;37208;-70
2022/06/06 04:06:38;;;;;;;30.13;20.85;;;;;;;14.91;97.67;100901.19;2064914;28;20940;-70
2022/06/06 04:07:40;;;;;;;31.33;20.95;;;;;;;14.91;97.42;100897.63;2063882;28;41044;-69
2022/06/06 04:08:41;;;;;;;32.78;23.58;;;;;;;14.88;97.03;100896.81;2064430;28;36532;-69
2022/06/06 04:09:44;;;;;;;34.72;23.42;;;;;;;14.88;97.07;100899.50;2064874;28;20994;-69
2022/06/06 04:11:28;;;;;;;37.08;23.58;;;;;;;14.89;97.35;100901.28;2064091;28;36972;-70
2022/06/06 04:13:18;;;;;;;32.88;22.20;;;;;;;14.87;97.25;100904.97;2063819;28;35669;-69
2022/06/06 04:14:44;;;;;;;32.05;21.95;;;;;;;14.84;96.77;100895.19;2062628;28;37978;-70
2022/06/06 04:15:58;;;;;;;33.50;22.52;;;;;;;14.86;97.41;100897.84;2063431;28;42608;-70
2022/06/06 04:17:39;;;;;;;33.35;21.60;;;;;;;14.83;97.57;100908.72;2071415;28;41265;-69
2022/06/06 04:19:00;;;;;;;34.40;21.58;;;;;;;14.83;97.04;100901.50;2057612;28;46454;-69
2022/06/06 04:20:13;;;;;;;29.13;20.70;;;;;;;14.83;96.98;100906.91;2064279;28;45216;-69
2022/06/06 04:22:09;;;;;;;33.38;21.77;;;;;;;14.83;97.00;100906.91;2063974;28;38216;-69
2022/06/06 04:23:40;;;;;;;28.38;20.45;;;;;;;14.84;97.15;100915.84;2046029;28;38440;-69
2022/06/06 04:25:13;;;;;;;34.63;21.60;;;;;;;14.82;96.68;100907.88;2052933;28;40702;-69
2022/06/06 04:26:37;;;;;;;31.77;20.77;;;;;;;14.81;96.64;100902.53;2055791;28;45301;-68
2022/06/06 04:28:32;;;;;;;30.65;20.10;;;;;;;14.81;96.54;100906.09;2063754;28;38463;-69
2022/06/06 04:30:07;;;;;;;29.00;19.20;;;;;;;14.82;96.36;100910.56;2056059;28;40449;-69
2022/06/06 04:31:48;;;;;;;29.60;19.02;;;;;;;14.81;96.45;100911.47;2064405;28;20523;-69
2022/06/06 04:33:14;;;;;;;30.70;19.83;;;;;;;14.80;96.31;100915.09;2056155;28;31545;-69
2022/06/06 04:34:31;;;;;;;32.17;20.42;;;;;;;14.79;96.69;100916.06;2055381;28;44932;-70
2022/06/06 04:36:02;;;;;;;31.02;20.38;;;;;;;14.76;96.70;100918.88;2063595;28;40830;-69
2022/06/06 04:37:18;;;;;;;31.23;19.67;;;;;;;14.76;96.46;100918.88;2059155;28;38112;-69
2022/06/06 04:38:52;;;;;;;31.60;19.95;;;;;;;14.74;96.94;100906.41;2056175;28;34574;-69
2022/06/06 04:40:35;;;;;;;31.50;19.08;;;;;;;14.74;97.01;100918.06;2063170;28;44338;-69
2022/06/06 04:42:16;;;;;;;27.65;17.63;;;;;;;14.65;96.20;100913.91;2071730;28;40602;-69
2022/06/06 04:43:41;;;;;;;28.77;17.60;;;;;;;14.67;96.41;100913.88;2055909;28;42460;-69
2022/06/06 04:45:31;;;;;;;26.92;16.25;;;;;;;14.62;95.86;100926.63;2063417;28;39313;-69
2022/06/06 04:46:52;;;;;;;27.55;16.70;;;;;;;14.62;96.44;100915.84;2071573;28;42863;-69
2022/06/06 04:47:55;;;;;;;26.25;15.55;;;;;;;14.62;96.17;100926.63;2056093;28;37846;-69
2022/06/06 04:48:57;;;;;;;23.02;14.93;;;;;;;14.59;96.11;100924.06;2056046;28;39204;-68
2022/06/06 04:50:10;;;;;;;23.02;14.27;;;;;;;14.57;96.14;100917.81;2055777;28;37600;-69
2022/06/06 04:51:17;;;;;;;23.08;13.82;;;;;;;14.54;95.89;100932.31;2063989;28;42423;-69
2022/06/06 04:52:19;;;;;;;21.73;14.10;;;;;;;14.55;96.03;100920.56;2071349;28;44432;-69
2022/06/06 04:53:25;;;;;;;21.02;12.90;;;;;;;14.56;95.71;100932.25;2070247;28;33781;-69
2022/06/06 04:54:31;;;;;;;20.92;11.90;;;;;;;14.55;95.80;100922.41;2070706;28;39700;-69
2022/06/06 04:55:37;;;;;;;20.13;11.77;;;;;;;14.55;95.64;100914.31;2070452;28;41214;-70
2022/06/06 04:56:40;;;;;;;17.05;11.70;;;;;;;14.55;95.42;100927.78;2071511;28;38321;-69
2022/06/06 04:57:49;;;;;;;16.48;11.07;;;;;;;14.52;95.02;100924.28;2071934;28;20109;-69
2022/06/06 04:58:58;;;;;;;14.23;10.57;;;;;;;14.56;95.44;100932.25;2071162;28;37997;-69
2022/06/06 05:00:07;;;;;;;15.48;10.23;;;;;;;14.55;95.09;100933.19;2071263;28;37136;-69
2022/06/06 05:01:10;;;;;;;16.45;10.27;;;;;;;14.53;95.22;100938.63;2071402;28;46065;-70
2022/06/06 05:02:14;;;;;;;14.70;10.52;;;;;;;14.49;95.12;100929.78;2070809;28;20090;-69
2022/06/06 05:03:16;;;;;;;13.32;9.30;;;;;;;14.48;94.88;100936.13;2063497;28;38535;-69
2022/06/06 05:04:18;;;;;;;14.65;9.32;;;;;;;14.49;95.01;100937.88;2063815;28;43743;-69
2022/06/06 05:05:28;;;;;;;17.38;10.10;;;;;;;14.46;94.79;100940.72;2064387;28;20741;-70
2022/06/06 05:07:25;;;;;;;12.82;9.32;;;;;;;14.42;94.75;100946.25;2071417;28;40412;-69
2022/06/06 05:09:09;;;;;;;13.13;9.52;;;;;;;14.45;94.55;100959.63;2064655;28;20241;-69
2022/06/06 05:10:26;;;;;;;16.17;9.40;;;;;;;14.45;94.40;100956.94;2056115;28;40153;-69
2022/06/06 05:11:46;;;;;;;14.38;9.52;;;;;;;14.45;94.50;100963.19;2063907;28;43581;-70
2022/06/06 05:13:32;;;;;;;16.08;9.45;;;;;;;14.44;94.33;100960.53;2063610;28;42803;-69
2022/06/06 05:14:39;;;;;;;14.27;9.35;;;;;;;14.43;93.81;100966.88;2063882;28;38346;-70
2022/06/06 05:16:10;;;;;;;13.68;9.98;;;;;;;14.41;93.75;100966.94;2063567;28;40488;-70
2022/06/06 05:18:03;;;;;;;17.27;9.57;;;;;;;14.42;93.96;100970.50;2064647;28;20059;-69
2022/06/06 05:19:37;;;;;;;14.07;10.23;;;;;;;14.41;94.08;100983.09;2072072;28;26197;-69
2022/06/06 05:21:22;;;;;;;16.25;9.90;;;;;;;14.42;93.78;100981.28;2063599;28;39379;-69
2022/06/06 05:22:35;;;;;;;16.55;9.50;;;;;;;14.43;94.01;100989.31;2064437;28;20043;-69
2022/06/06 05:24:07;;;;;;;15.98;10.63;;;;;;;14.42;94.16;100974.06;2063894;28;34881;-70
2022/06/06 05:25:44;;;;;;;15.40;9.63;;;;;;;14.41;94.27;100988.50;2071166;28;40133;-69
2022/06/06 05:27:06;;;;;;;17.80;11.18;;;;;;;14.40;94.16;100981.34;2066366;28;44806;-69
2022/06/06 05:28:46;;;;;;;19.15;11.65;;;;;;;14.37;93.95;100976.06;2071111;28;37918;-69
2022/06/06 05:30:31;;;;;;;21.50;11.50;;;;;;;14.40;93.97;100986.72;2066199;28;43047;-69
2022/06/06 05:32:17;;;;;;;16.35;11.30;;;;;;;14.41;93.97;100984.91;2063947;28;35883;-69
2022/06/06 05:33:45;;;;;;;20.58;12.15;;;;;;;14.40;94.44;100978.63;2071039;28;39688;-69
2022/06/06 05:35:35;;;;;;;22.52;12.18;;;;;;;14.41;93.85;100984.91;2063135;28;44534;-69
2022/06/06 05:37:13;;;;;;;19.20;12.23;;;;;;;14.39;93.43;100992.16;2071096;28;23300;-69
2022/06/06 05:38:48;;;;;;;21.65;12.48;;;;;;;14.37;93.89;100976.06;2063340;28;45544;-69
2022/06/06 05:40:27;;;;;;;19.98;11.95;;;;;;;14.39;93.24;100989.47;2055929;28;40157;-69
2022/06/06 05:42:12;;;;;;;22.55;12.70;;;;;;;14.39;93.24;100994.84;2064332;28;20927;-69
2022/06/06 05:43:42;;;;;;;22.52;12.73;;;;;;;14.36;92.87;100990.47;2063273;28;44786;-69
2022/06/06 05:45:01;;;;;;;20.77;12.57;;;;;;;14.38;93.10;100996.69;2063481;28;42390;-68
2022/06/06 05:46:17;;;;;;;22.95;13.88;;;;;;;14.39;92.95;100993.06;2071408;28;39658;-69
2022/06/06 05:47:49;;;;;;;23.23;13.80;;;;;;;14.40;92.57;101002.00;2070194;28;20137;-68
2022/06/06 05:49:26;;;;;;;22.05;12.15;;;;;;;14.38;92.82;100991.28;2070881;28;38393;-69